DEN weather

Denver International Airport
Denver, Colorado, United States

Public forecast

Using degrees Fahrenheit for public forecast. Weather courtesy of forecast.io.

METAR (pilot weather report)

Retrieved 2018/02/18 22:53 UTC (58 minutes ago):

KDEN 182253Z 32006KT 10SM FEW100 FEW160 FEW220 19/M11 A2941 RMK AO2 SLP914 T01891106 $

TAF (pilot weather forecast)

Retrieved 2018/02/18 18:48 UTC (5 hours ago):

TAF KDEN 181746Z 1818/1924 22014KT P6SM FEW120 SCT220 FM182000 27018G30KT P6SM FEW140 SCT200 FM190100 21014KT P6SM FEW140 BKN200 FM190900 05010KT P6SM FEW025 SCT050 BKN140 FM191100 07012G18KT 3SM BR BKN007 OVC020 TEMPO 1911/1915 1SM -FZDZ BR VV004 FM191500 08013KT 2SM -FZDZ BR BKN003 OVC008 FM191900 10016G24KT 2SM -SN BR BKN004 OVC009